Time;durP1;ratioP1;P1;durP2;ratioP2;P2;SDS_P1;SDS_P2;PMS_P1;PMS_P2;Temp;Humidity;BMP_temperature;BMP_pressure;BME280_temperature;BME280_humidity;BME280_pressure;Samples;Min_cycle;Max_cycle;Signal;HPM_P1;HPM_P2
2023/08/07 00:01:35;;;;;;;12.97;3.93;;;14.10;99.90;;;;;;5033547;28;20469;-58
2023/08/07 00:04:01;;;;;;;7.63;3.73;;;14.10;99.90;;;;;;5033864;28;20423;-58
2023/08/07 00:06:28;;;;;;;8.53;3.73;;;14.10;99.90;;;;;;5033766;28;20445;-59
2023/08/07 00:08:55;;;;;;;19.73;4.00;;;14.10;99.90;;;;;;5032949;28;20439;-59
2023/08/07 00:11:23;;;;;;;13.60;3.67;;;14.10;99.90;;;;;;5033619;28;20537;-59
2023/08/07 00:13:50;;;;;;;10.00;3.10;;;14.10;99.90;;;;;;5033589;28;20482;-59
2023/08/07 00:16:17;;;;;;;7.63;2.87;;;14.10;99.90;;;;;;5033322;28;20936;-59
2023/08/07 00:18:43;;;;;;;10.93;3.53;;;14.10;99.90;;;;;;5033513;28;20545;-59
2023/08/07 00:21:10;;;;;;;10.40;2.90;;;14.10;99.90;;;;;;5033575;28;20827;-59
2023/08/07 00:23:37;;;;;;;13.53;2.97;;;14.00;99.90;;;;;;5033550;28;20435;-59
2023/08/07 00:26:03;;;;;;;4.83;3.07;;;14.00;99.90;;;;;;5033477;28;20454;-59
2023/08/07 00:28:32;;;;;;;9.50;4.10;;;14.10;99.90;;;;;;5033388;28;20454;-58
2023/08/07 00:30:58;;;;;;;8.27;3.23;;;14.00;99.90;;;;;;5033057;28;20827;-58
2023/08/07 00:33:25;;;;;;;6.27;3.30;;;14.00;99.90;;;;;;5033563;28;20478;-58
2023/08/07 00:35:52;;;;;;;14.63;3.77;;;14.00;99.90;;;;;;5033393;28;20451;-58
2023/08/07 00:38:18;;;;;;;14.67;3.30;;;14.00;99.90;;;;;;5033363;28;20446;-58
2023/08/07 00:40:45;;;;;;;9.07;4.07;;;14.00;99.90;;;;;;5033163;28;20462;-58
2023/08/07 00:43:12;;;;;;;7.83;4.00;;;14.00;99.90;;;;;;5033310;28;20442;-58
2023/08/07 00:45:44;;;;;;;11.90;4.30;;;14.00;99.90;;;;;;5033268;28;20872;-58
2023/08/07 00:48:12;;;;;;;9.00;3.43;;;13.90;99.90;;;;;;5033281;28;20435;-59
2023/08/07 00:50:39;;;;;;;11.17;5.30;;;14.00;99.90;;;;;;5033193;28;20462;-58
2023/08/07 00:53:07;;;;;;;10.17;4.17;;;13.90;99.90;;;;;;5032842;28;20486;-59
2023/08/07 00:55:34;;;;;;;13.60;4.93;;;14.00;99.90;;;;;;5032826;28;20937;-59
2023/08/07 00:58:00;;;;;;;9.83;4.10;;;13.90;99.90;;;;;;5033134;28;20453;-59
2023/08/07 01:00:29;;;;;;;15.00;4.50;;;13.90;99.90;;;;;;5032791;28;20477;-58
2023/08/07 01:02:57;;;;;;;18.60;4.80;;;13.90;99.90;;;;;;5032664;28;20865;-58
2023/08/07 01:05:25;;;;;;;10.10;4.30;;;14.00;99.90;;;;;;5033052;28;20450;-58
2023/08/07 01:07:55;;;;;;;11.03;4.13;;;14.00;99.90;;;;;;5033130;28;20508;-58
2023/08/07 01:10:30;;;;;;;10.87;4.20;;;13.90;99.90;;;;;;5032946;28;20497;-58
2023/08/07 01:13:05;;;;;;;15.17;5.13;;;13.90;99.90;;;;;;5032967;28;20423;-58
2023/08/07 01:15:34;;;;;;;14.10;3.97;;;13.90;99.90;;;;;;5033130;28;20435;-58
2023/08/07 01:18:04;;;;;;;8.73;3.90;;;13.90;99.90;;;;;;5033190;28;20461;-58
2023/08/07 01:20:31;;;;;;;8.77;3.43;;;13.90;99.90;;;;;;5034856;28;20898;-58
2023/08/07 01:22:59;;;;;;;14.23;4.30;;;13.90;99.90;;;;;;5036827;28;20457;-58
2023/08/07 01:25:26;;;;;;;11.40;4.20;;;13.90;99.90;;;;;;5036792;28;20447;-58
2023/08/07 01:28:00;;;;;;;9.47;3.90;;;14.00;99.90;;;;;;5036661;28;20541;-58
2023/08/07 01:30:32;;;;;;;10.90;4.60;;;14.00;99.90;;;;;;5036631;28;20458;-58
2023/08/07 01:33:07;;;;;;;14.67;3.63;;;14.00;99.90;;;;;;5036584;28;20438;-58
2023/08/07 01:35:37;;;;;;;13.70;3.50;;;14.00;99.90;;;;;;5036336;28;20917;-58
2023/08/07 01:38:06;;;;;;;15.13;4.53;;;14.00;99.90;;;;;;5036591;28;20442;-59
2023/08/07 01:40:33;;;;;;;15.33;4.17;;;14.00;99.90;;;;;;5036654;28;20466;-58
2023/08/07 01:43:00;;;;;;;10.03;3.90;;;14.00;99.90;;;;;;5036238;28;20971;-58
2023/08/07 01:45:28;;;;;;;13.97;3.80;;;14.00;99.90;;;;;;5036468;28;20469;-58
2023/08/07 01:47:54;;;;;;;7.80;3.90;;;14.10;99.90;;;;;;5036389;28;20446;-57
2023/08/07 01:50:22;;;;;;;11.37;3.57;;;14.10;99.90;;;;;;5036381;28;20489;-57
2023/08/07 01:52:49;;;;;;;8.53;3.77;;;14.10;99.90;;;;;;5036285;28;20461;-57
2023/08/07 01:55:18;;;;;;;10.37;3.37;;;14.20;99.90;;;;;;5036143;28;20478;-57
2023/08/07 01:57:45;;;;;;;15.30;3.80;;;14.20;99.90;;;;;;5035787;28;20903;-57
2023/08/07 02:00:12;;;;;;;12.63;5.73;;;14.20;99.90;;;;;;5036136;28;20489;-57
2023/08/07 02:02:39;;;;;;;7.53;3.60;;;14.20;99.90;;;;;;5035961;28;20465;-57
2023/08/07 02:05:06;;;;;;;16.70;4.03;;;14.20;99.90;;;;;;5036143;28;20442;-57
2023/08/07 02:07:33;;;;;;;6.80;3.80;;;14.20;99.90;;;;;;5036118;28;20825;-58
2023/08/07 02:10:00;;;;;;;12.10;4.20;;;14.20;99.90;;;;;;5035891;28;20481;-59
2023/08/07 02:12:29;;;;;;;8.73;3.00;;;14.20;99.90;;;;;;5035972;28;20453;-58
2023/08/07 02:14:56;;;;;;;7.70;4.23;;;14.20;99.90;;;;;;5035897;28;20644;-58
2023/08/07 02:17:23;;;;;;;11.60;3.93;;;14.20;99.90;;;;;;5035917;28;20447;-58
2023/08/07 02:19:49;;;;;;;8.87;3.47;;;14.10;99.90;;;;;;5035738;28;20463;-59
2023/08/07 02:22:16;;;;;;;8.63;3.67;;;14.10;99.90;;;;;;5035824;28;20441;-59
2023/08/07 02:24:43;;;;;;;9.07;3.10;;;14.10;99.90;;;;;;5035402;28;20949;-59
2023/08/07 02:27:09;;;;;;;10.80;4.50;;;14.10;99.90;;;;;;5035675;28;20457;-59
2023/08/07 02:29:37;;;;;;;11.77;4.50;;;14.10;99.90;;;;;;5035623;28;20442;-59
2023/08/07 02:32:05;;;;;;;12.57;3.70;;;14.00;99.90;;;;;;5034851;28;20447;-58
2023/08/07 02:34:32;;;;;;;12.73;3.97;;;14.00;99.90;;;;;;5035436;28;20478;-58
2023/08/07 02:36:59;;;;;;;12.13;4.47;;;14.00;99.90;;;;;;5035470;28;20442;-58
2023/08/07 02:39:26;;;;;;;15.40;4.33;;;14.00;99.90;;;;;;5035446;28;20445;-58
2023/08/07 02:41:53;;;;;;;7.47;3.27;;;14.10;99.90;;;;;;5035411;28;20447;-59
2023/08/07 02:44:19;;;;;;;16.23;4.80;;;14.00;99.90;;;;;;5035053;28;20941;-59
2023/08/07 02:46:48;;;;;;;14.10;4.40;;;14.00;99.90;;;;;;5035020;28;20455;-59
2023/08/07 02:49:14;;;;;;;10.90;3.50;;;14.00;99.90;;;;;;5035162;28;20442;-59
2023/08/07 02:51:41;;;;;;;18.40;3.40;;;14.10;99.90;;;;;;5035190;28;20485;-59
2023/08/07 02:54:08;;;;;;;11.03;3.43;;;14.10;99.90;;;;;;5035094;28;20490;-59
2023/08/07 02:56:34;;;;;;;7.10;3.40;;;14.10;99.90;;;;;;5035044;28;20447;-58
2023/08/07 02:59:01;;;;;;;11.60;3.30;;;14.00;99.90;;;;;;5034765;28;20445;-58
2023/08/07 03:01:28;;;;;;;14.80;4.13;;;14.00;99.90;;;;;;5034878;28;20836;-59
2023/08/07 03:03:56;;;;;;;13.80;3.80;;;14.00;99.90;;;;;;5034916;28;20439;-59
2023/08/07 03:06:24;;;;;;;9.33;4.37;;;14.00;99.90;;;;;;5034877;28;20450;-59
2023/08/07 03:08:51;;;;;;;9.33;3.67;;;14.00;99.90;;;;;;5034782;28;20449;-59
2023/08/07 03:11:17;;;;;;;11.17;4.13;;;14.00;99.90;;;;;;5034425;28;20999;-59
2023/08/07 03:13:45;;;;;;;6.93;3.37;;;13.90;99.90;;;;;;5034650;28;20439;-58
2023/08/07 03:16:11;;;;;;;11.27;3.60;;;13.90;99.90;;;;;;5035130;28;20486;-59
2023/08/07 03:18:38;;;;;;;14.20;5.73;;;13.90;99.90;;;;;;5034585;28;20537;-59
2023/08/07 03:21:06;;;;;;;12.90;4.20;;;13.80;99.90;;;;;;5034904;28;20831;-59
2023/08/07 03:23:33;;;;;;;9.13;3.60;;;13.80;99.90;;;;;;5034577;28;20447;-59
2023/08/07 03:26:03;;;;;;;13.00;4.10;;;13.80;99.90;;;;;;5034507;28;20443;-59
2023/08/07 03:28:30;;;;;;;11.70;5.10;;;13.70;99.90;;;;;;5034118;28;20846;-59
2023/08/07 03:30:57;;;;;;;11.53;4.13;;;13.70;99.90;;;;;;5034315;28;20536;-59
2023/08/07 03:33:23;;;;;;;10.80;3.90;;;13.70;99.90;;;;;;5034373;28;20443;-59
2023/08/07 03:35:50;;;;;;;14.50;3.60;;;13.60;99.90;;;;;;5033930;28;21024;-59
2023/08/07 03:38:18;;;;;;;9.80;3.80;;;13.70;99.90;;;;;;5033900;28;20855;-59
2023/08/07 03:40:45;;;;;;;10.00;3.23;;;13.70;99.90;;;;;;5034181;28;20477;-59
2023/08/07 03:43:12;;;;;;;7.60;4.03;;;13.70;99.90;;;;;;5034108;28;20447;-59
2023/08/07 03:45:40;;;;;;;9.60;3.30;;;13.80;99.90;;;;;;5034097;28;20450;-59
2023/08/07 03:48:06;;;;;;;9.10;3.13;;;13.80;99.90;;;;;;5034047;28;20451;-59
2023/08/07 03:50:34;;;;;;;7.27;3.60;;;13.80;99.90;;;;;;5033989;28;20486;-59
2023/08/07 03:53:01;;;;;;;8.23;2.97;;;13.80;99.90;;;;;;5034637;28;20478;-59
2023/08/07 03:55:29;;;;;;;11.00;3.70;;;13.80;99.90;;;;;;5033929;28;20489;-59
2023/08/07 03:57:56;;;;;;;9.93;3.33;;;13.80;99.90;;;;;;5033982;28;20442;-59
2023/08/07 04:00:23;;;;;;;7.80;3.30;;;13.80;99.90;;;;;;5033803;28;20473;-59
2023/08/07 04:02:49;;;;;;;10.30;3.90;;;13.80;99.90;;;;;;5033573;28;20463;-59
2023/08/07 04:05:16;;;;;;;15.03;3.57;;;13.90;99.90;;;;;;5033874;28;20824;-59
2023/08/07 04:07:44;;;;;;;13.90;3.37;;;13.90;99.90;;;;;;5033834;28;20470;-59
2023/08/07 04:10:11;;;;;;;4.60;3.40;;;13.80;99.90;;;;;;5033701;28;20466;-59
2023/08/07 04:12:39;;;;;;;11.50;3.57;;;13.80;99.90;;;;;;5033411;28;20797;-59
2023/08/07 04:15:08;;;;;;;12.60;3.93;;;13.80;99.90;;;;;;5034433;28;20829;-59
2023/08/07 04:17:35;;;;;;;14.40;4.50;;;13.80;99.90;;;;;;5033734;28;20474;-59
2023/08/07 04:20:03;;;;;;;11.90;4.80;;;13.80;99.90;;;;;;5033570;28;20462;-59
2023/08/07 04:22:30;;;;;;;11.50;4.83;;;13.90;99.90;;;;;;5033577;28;20450;-59
2023/08/07 04:24:56;;;;;;;7.73;4.33;;;13.90;99.90;;;;;;5033533;28;20439;-59
2023/08/07 04:27:23;;;;;;;9.77;4.77;;;13.90;99.90;;;;;;5033204;28;20952;-59
2023/08/07 04:29:51;;;;;;;16.70;5.00;;;13.90;99.90;;;;;;5033399;28;20486;-58
2023/08/07 04:32:18;;;;;;;11.20;4.80;;;13.90;99.90;;;;;;5033139;28;20964;-58
2023/08/07 04:34:45;;;;;;;8.63;4.90;;;13.90;99.90;;;;;;5033420;28;20505;-58
2023/08/07 04:37:11;;;;;;;10.07;4.30;;;13.90;99.90;;;;;;5033400;28;20446;-58
2023/08/07 04:39:38;;;;;;;7.60;3.60;;;13.90;99.90;;;;;;5033336;28;20443;-58
2023/08/07 04:42:06;;;;;;;9.70;4.50;;;13.90;99.90;;;;;;5033645;28;20800;-58
2023/08/07 04:44:33;;;;;;;11.57;4.00;;;13.90;99.90;;;;;;5033488;28;20516;-58
2023/08/07 04:47:01;;;;;;;14.37;4.77;;;13.80;99.90;;;;;;5033429;28;20886;-58
2023/08/07 04:49:27;;;;;;;11.83;4.60;;;13.80;99.90;;;;;;5033181;28;20473;-59
2023/08/07 04:51:54;;;;;;;9.77;4.53;;;13.80;99.90;;;;;;5033363;28;20450;-59
2023/08/07 04:54:21;;;;;;;11.03;3.83;;;13.80;99.90;;;;;;5033281;28;20486;-59
2023/08/07 04:56:48;;;;;;;12.33;3.50;;;13.80;99.90;;;;;;5037283;28;20454;-59
2023/08/07 04:59:15;;;;;;;9.70;3.60;;;13.80;99.90;;;;;;5037189;28;20446;-59
2023/08/07 05:01:41;;;;;;;8.80;3.90;;;13.80;99.90;;;;;;5037067;28;20473;-59
2023/08/07 05:04:10;;;;;;;10.47;4.07;;;13.80;99.90;;;;;;5037258;28;20434;-59
2023/08/07 05:06:36;;;;;;;11.27;4.37;;;13.90;99.90;;;;;;5036969;28;20928;-59
2023/08/07 05:09:03;;;;;;;12.83;4.77;;;13.90;99.90;;;;;;5036995;28;20940;-58
2023/08/07 05:11:30;;;;;;;10.20;4.00;;;13.90;99.90;;;;;;5037044;28;20462;-59
2023/08/07 05:13:57;;;;;;;9.13;4.37;;;13.90;99.90;;;;;;5037051;28;20446;-59
2023/08/07 05:16:23;;;;;;;5.93;3.83;;;13.90;99.90;;;;;;5036560;28;21019;-59
2023/08/07 05:18:50;;;;;;;8.90;3.40;;;13.90;99.90;;;;;;5036980;28;20450;-59
2023/08/07 05:21:18;;;;;;;13.57;4.40;;;13.90;99.90;;;;;;5036942;28;20504;-59
2023/08/07 05:23:45;;;;;;;7.83;4.30;;;14.00;99.90;;;;;;5036822;28;20450;-59
2023/08/07 05:26:11;;;;;;;5.70;3.90;;;14.00;99.90;;;;;;5036775;28;20442;-58
2023/08/07 05:28:38;;;;;;;10.43;3.60;;;14.00;99.90;;;;;;5036803;28;20447;-58
2023/08/07 05:31:05;;;;;;;8.10;3.67;;;13.90;99.90;;;;;;5036746;28;20466;-59
2023/08/07 05:33:31;;;;;;;11.30;3.73;;;14.00;99.90;;;;;;5036666;28;20445;-59
2023/08/07 05:35:58;;;;;;;8.70;3.77;;;14.00;99.90;;;;;;5036538;28;20485;-59
2023/08/07 05:38:26;;;;;;;9.50;3.20;;;14.00;99.90;;;;;;5037332;28;20442;-59
2023/08/07 05:40:53;;;;;;;9.70;3.40;;;14.00;99.90;;;;;;5036548;28;20466;-59
2023/08/07 05:43:19;;;;;;;7.43;3.73;;;14.00;99.90;;;;;;5036140;28;20952;-59
2023/08/07 05:45:46;;;;;;;14.03;4.00;;;14.00;99.90;;;;;;5036152;28;20837;-58
2023/08/07 05:48:13;;;;;;;10.30;3.80;;;14.00;99.90;;;;;;5036350;28;20453;-59
2023/08/07 05:50:40;;;;;;;13.73;3.80;;;14.00;99.90;;;;;;5036404;28;20467;-59
2023/08/07 05:53:06;;;;;;;7.73;3.57;;;14.10;99.90;;;;;;5036303;28;20820;-59
2023/08/07 05:55:34;;;;;;;5.77;3.77;;;14.00;99.90;;;;;;5037000;28;20477;-58
2023/08/07 05:58:01;;;;;;;10.20;4.10;;;14.10;99.90;;;;;;5036194;28;20442;-58
2023/08/07 06:00:28;;;;;;;13.10;3.93;;;14.10;99.90;;;;;;5036267;28;20465;-58
2023/08/07 06:02:55;;;;;;;15.10;3.43;;;14.10;99.90;;;;;;5035844;28;20469;-58
2023/08/07 06:05:21;;;;;;;9.97;3.60;;;14.10;99.90;;;;;;5036627;28;20446;-58
2023/08/07 06:07:48;;;;;;;8.33;3.60;;;14.10;99.90;;;;;;5034785;28;20442;-58
2023/08/07 06:10:15;;;;;;;12.33;3.60;;;14.10;99.90;;;;;;5035990;28;20462;-58
2023/08/07 06:12:43;;;;;;;7.10;3.40;;;14.10;99.90;;;;;;5035803;28;20462;-58
2023/08/07 06:15:10;;;;;;;8.57;3.50;;;14.10;99.90;;;;;;5035868;28;20518;-58
2023/08/07 06:17:39;;;;;;;8.07;3.60;;;14.10;99.90;;;;;;5035889;28;20443;-58
2023/08/07 06:20:09;;;;;;;9.73;3.53;;;14.10;99.90;;;;;;5036142;28;21015;-58
2023/08/07 06:22:35;;;;;;;14.20;4.03;;;14.10;99.90;;;;;;5035902;28;20488;-58
2023/08/07 06:25:02;;;;;;;6.77;3.67;;;14.20;99.90;;;;;;5035717;28;20449;-58
2023/08/07 06:27:30;;;;;;;7.33;4.50;;;14.10;99.90;;;;;;5035413;28;20940;-58
2023/08/07 06:29:58;;;;;;;8.77;2.80;;;14.10;99.90;;;;;;5035769;28;20482;-58
2023/08/07 06:32:26;;;;;;;8.50;3.57;;;14.00;99.90;;;;;;5035977;28;20479;-58
2023/08/07 06:34:53;;;;;;;9.30;3.53;;;14.00;99.90;;;;;;5036255;28;20833;-58
2023/08/07 06:37:20;;;;;;;10.87;3.40;;;14.00;99.90;;;;;;5036132;28;20449;-58
2023/08/07 06:39:46;;;;;;;8.87;3.87;;;14.00;99.90;;;;;;5035969;28;20446;-58
2023/08/07 06:42:13;;;;;;;13.60;4.33;;;14.10;99.90;;;;;;5035952;28;20833;-58
2023/08/07 06:44:40;;;;;;;10.07;4.07;;;14.10;99.90;;;;;;5036028;28;20971;-58
2023/08/07 06:47:09;;;;;;;9.53;3.37;;;14.10;99.90;;;;;;5036409;28;20450;-58
2023/08/07 06:49:36;;;;;;;9.73;4.53;;;14.00;99.90;;;;;;5036769;28;20485;-58
2023/08/07 06:52:02;;;;;;;7.50;3.80;;;14.10;99.90;;;;;;5036767;28;20505;-58
2023/08/07 06:54:29;;;;;;;9.67;4.17;;;14.10;99.90;;;;;;5035898;28;20446;-58
2023/08/07 06:56:56;;;;;;;9.50;3.50;;;14.10;99.90;;;;;;5036116;28;20494;-58
2023/08/07 06:59:23;;;;;;;5.90;3.27;;;14.10;99.90;;;;;;5035607;28;20450;-58
2023/08/07 07:01:50;;;;;;;11.10;5.10;;;14.10;99.90;;;;;;5035338;28;20837;-58
2023/08/07 07:04:19;;;;;;;8.83;4.20;;;14.10;99.90;;;;;;5035100;28;20466;-58
2023/08/07 07:06:45;;;;;;;7.57;3.40;;;14.10;99.90;;;;;;5034628;28;20999;-58
2023/08/07 07:09:15;;;;;;;8.17;3.70;;;14.10;99.90;;;;;;5034952;28;20446;-58
2023/08/07 07:11:43;;;;;;;8.53;3.70;;;14.10;99.90;;;;;;5034780;28;20520;-57
2023/08/07 07:14:10;;;;;;;6.63;3.60;;;14.10;99.90;;;;;;5034705;28;20453;-57
2023/08/07 07:16:37;;;;;;;9.67;4.10;;;14.10;99.90;;;;;;5034664;28;20490;-57
2023/08/07 07:19:06;;;;;;;11.90;4.10;;;14.20;99.90;;;;;;5034391;28;20450;-57
2023/08/07 07:21:34;;;;;;;12.23;4.07;;;14.10;99.90;;;;;;5034552;28;20546;-57
2023/08/07 07:24:01;;;;;;;10.23;3.97;;;14.20;99.90;;;;;;5034312;28;20937;-58
2023/08/07 07:26:28;;;;;;;6.33;3.27;;;14.30;99.90;;;;;;5034520;28;20439;-58
2023/08/07 07:28:55;;;;;;;12.00;4.07;;;14.30;99.90;;;;;;5034108;28;20959;-58
2023/08/07 07:31:21;;;;;;;11.87;3.87;;;14.40;99.90;;;;;;5034348;28;20466;-58
2023/08/07 07:33:48;;;;;;;10.20;3.43;;;14.50;99.90;;;;;;5034137;28;20971;-59
2023/08/07 07:36:16;;;;;;;12.40;3.90;;;14.50;99.90;;;;;;5034285;28;20557;-59
2023/08/07 07:38:47;;;;;;;6.83;3.83;;;14.70;99.90;;;;;;5034250;28;20450;-59
2023/08/07 07:41:13;;;;;;;7.47;3.60;;;14.70;99.90;;;;;;5034190;28;20486;-59
2023/08/07 07:43:40;;;;;;;5.93;3.23;;;14.80;99.90;;;;;;5034250;28;20469;-59
2023/08/07 07:46:07;;;;;;;14.37;4.17;;;14.90;99.90;;;;;;5033886;28;20958;-58
2023/08/07 07:48:34;;;;;;;11.27;3.97;;;15.00;99.90;;;;;;5034102;28;20524;-58
2023/08/07 07:51:00;;;;;;;10.93;3.33;;;15.00;99.90;;;;;;5033997;28;20462;-57
2023/08/07 07:53:27;;;;;;;6.03;3.20;;;15.10;99.90;;;;;;5034053;28;20968;-57
2023/08/07 07:55:56;;;;;;;8.90;3.33;;;15.20;99.90;;;;;;5033740;28;21003;-57
2023/08/07 07:58:23;;;;;;;10.03;2.93;;;15.10;99.90;;;;;;5034118;28;20434;-57
2023/08/07 08:00:52;;;;;;;6.93;3.00;;;15.10;99.90;;;;;;5034076;28;20475;-58
2023/08/07 08:03:19;;;;;;;8.80;3.40;;;15.10;99.90;;;;;;5034113;28;20462;-58
2023/08/07 08:05:45;;;;;;;9.20;3.13;;;15.10;99.90;;;;;;5034861;28;20466;-58
2023/08/07 08:08:12;;;;;;;6.53;3.17;;;15.10;99.90;;;;;;5033670;28;20449;-58
2023/08/07 08:10:39;;;;;;;6.87;3.20;;;15.10;99.90;;;;;;5033876;28;20498;-58
2023/08/07 08:13:09;;;;;;;7.73;3.37;;;15.20;99.90;;;;;;5033967;28;20451;-58
2023/08/07 08:15:36;;;;;;;13.70;3.47;;;15.20;99.90;;;;;;5033765;28;20509;-59
2023/08/07 08:18:03;;;;;;;8.03;3.40;;;15.30;99.90;;;;;;5033679;28;20442;-59
2023/08/07 08:20:31;;;;;;;11.20;3.20;;;15.40;99.90;;;;;;5033728;28;20470;-58
2023/08/07 08:22:57;;;;;;;9.63;3.50;;;15.60;99.90;;;;;;5033667;28;20446;-59
2023/08/07 08:25:24;;;;;;;12.53;3.43;;;15.70;99.90;;;;;;5033642;28;20442;-58
2023/08/07 08:27:51;;;;;;;5.37;2.53;;;15.80;99.90;;;;;;5033660;28;20461;-58
2023/08/07 08:30:19;;;;;;;9.17;2.60;;;15.90;99.90;;;;;;5032638;28;20474;-59
2023/08/07 08:32:46;;;;;;;11.33;3.40;;;15.90;99.90;;;;;;5033662;28;20477;-59
2023/08/07 08:35:12;;;;;;;11.33;3.10;;;16.00;99.90;;;;;;5033375;28;20473;-59
2023/08/07 08:37:40;;;;;;;13.10;3.70;;;16.00;99.90;;;;;;5033442;28;20446;-59
2023/08/07 08:40:09;;;;;;;8.40;3.10;;;16.10;99.90;;;;;;5033477;28;20466;-59
2023/08/07 08:42:37;;;;;;;5.43;2.47;;;16.10;99.90;;;;;;5033090;28;20966;-59
2023/08/07 08:45:05;;;;;;;4.90;2.80;;;16.20;99.90;;;;;;5033312;28;20815;-59
2023/08/07 08:47:36;;;;;;;5.67;2.40;;;16.40;99.90;;;;;;5033259;28;20443;-59
2023/08/07 08:50:07;;;;;;;3.60;2.47;;;16.60;99.90;;;;;;5034123;28;20473;-59
2023/08/07 08:52:34;;;;;;;6.27;2.70;;;16.60;99.90;;;;;;5033241;28;20423;-59
2023/08/07 08:55:02;;;;;;;7.50;2.53;;;16.70;99.90;;;;;;5032887;28;20936;-59
2023/08/07 08:57:29;;;;;;;8.93;2.57;;;16.80;99.90;;;;;;5033118;28;20479;-59
2023/08/07 08:59:57;;;;;;;6.20;2.43;;;16.90;99.90;;;;;;5033058;28;20473;-59
2023/08/07 09:02:24;;;;;;;7.00;2.10;;;17.00;99.90;;;;;;5032867;28;20465;-59
2023/08/07 09:04:52;;;;;;;8.87;3.17;;;17.00;99.90;;;;;;5033138;28;20442;-59
2023/08/07 09:07:21;;;;;;;5.03;2.40;;;17.00;99.90;;;;;;5033114;28;20443;-59
2023/08/07 09:09:50;;;;;;;4.00;2.10;;;17.10;99.90;;;;;;5033059;28;20462;-59
2023/08/07 09:12:21;;;;;;;6.63;1.63;;;17.10;99.90;;;;;;5033067;28;20493;-59
2023/08/07 09:14:53;;;;;;;6.93;1.87;;;17.20;99.90;;;;;;5033079;28;20434;-59
2023/08/07 09:17:23;;;;;;;5.27;2.50;;;17.30;99.90;;;;;;5032632;28;20843;-59
2023/08/07 09:19:49;;;;;;;7.37;1.97;;;17.50;99.90;;;;;;5032903;28;20473;-59
2023/08/07 09:22:18;;;;;;;7.90;1.90;;;17.70;99.30;;;;;;5032962;28;20446;-59
2023/08/07 09:24:44;;;;;;;7.30;2.40;;;17.80;99.90;;;;;;5032917;28;20466;-59
2023/08/07 09:27:11;;;;;;;5.80;2.17;;;18.10;99.70;;;;;;5032900;28;20442;-59
2023/08/07 09:29:40;;;;;;;5.13;2.20;;;18.20;98.80;;;;;;5033111;28;20454;-59
2023/08/07 09:32:09;;;;;;;7.13;2.20;;;18.50;99.00;;;;;;5032813;28;20518;-59
2023/08/07 09:34:35;;;;;;;4.17;1.47;;;18.70;99.50;;;;;;5032589;28;20979;-59
2023/08/07 09:37:03;;;;;;;4.87;2.03;;;19.10;98.90;;;;;;5032797;28;20481;-59
2023/08/07 09:39:32;;;;;;;5.97;1.60;;;19.30;95.70;;;;;;5032799;28;20863;-60
2023/08/07 09:41:59;;;;;;;9.60;2.53;;;19.40;94.40;;;;;;5035330;28;20490;-59
2023/08/07 09:44:26;;;;;;;5.40;2.27;;;19.50;95.00;;;;;;5036452;28;20453;-59
2023/08/07 09:46:52;;;;;;;8.53;2.80;;;19.70;96.00;;;;;;5036125;28;20940;-59
2023/08/07 09:49:19;;;;;;;6.60;2.00;;;20.00;95.20;;;;;;5036310;28;20477;-59
2023/08/07 09:51:50;;;;;;;8.17;2.30;;;20.10;92.70;;;;;;5036324;28;20473;-59
2023/08/07 09:54:17;;;;;;;4.17;1.50;;;20.10;92.20;;;;;;5036349;28;20850;-59
2023/08/07 09:56:47;;;;;;;8.60;2.53;;;19.80;92.20;;;;;;5036154;28;20493;-59
2023/08/07 09:59:14;;;;;;;5.47;1.77;;;19.60;92.30;;;;;;5036225;28;20430;-59
2023/08/07 10:01:44;;;;;;;7.90;2.40;;;19.70;93.60;;;;;;5035597;28;20998;-59
2023/08/07 10:04:15;;;;;;;5.03;2.10;;;19.90;92.90;;;;;;5036159;28;20427;-59
2023/08/07 10:06:42;;;;;;;7.03;2.20;;;20.00;91.00;;;;;;5036657;28;20423;-59
2023/08/07 10:09:09;;;;;;;6.17;2.60;;;20.20;89.00;;;;;;5036027;28;20446;-59
2023/08/07 10:11:36;;;;;;;5.77;1.90;;;20.10;89.30;;;;;;5035859;28;20512;-59
2023/08/07 10:14:04;;;;;;;5.53;2.57;;;20.30;87.70;;;;;;5035966;28;20817;-59
2023/08/07 10:16:31;;;;;;;7.00;2.07;;;20.50;88.40;;;;;;5035508;28;20478;-59
2023/08/07 10:18:58;;;;;;;5.17;1.77;;;20.80;86.10;;;;;;5035796;28;20446;-59
2023/08/07 10:21:25;;;;;;;6.90;1.67;;;21.10;84.50;;;;;;5035773;28;20477;-59
2023/08/07 10:23:54;;;;;;;5.47;1.57;;;21.40;75.90;;;;;;5035858;28;20446;-60
2023/08/07 10:26:23;;;;;;;3.40;1.80;;;21.50;77.20;;;;;;5035621;28;20439;-60
2023/08/07 10:28:53;;;;;;;5.50;1.80;;;21.80;79.10;;;;;;5035446;28;20537;-59
2023/08/07 10:31:23;;;;;;;4.93;1.67;;;21.80;71.60;;;;;;5035606;28;20883;-60
2023/08/07 10:33:50;;;;;;;5.40;1.80;;;21.60;72.40;;;;;;5035346;28;20496;-60
2023/08/07 10:36:17;;;;;;;6.10;1.57;;;21.30;77.10;;;;;;5035422;28;20486;-59
2023/08/07 10:38:44;;;;;;;4.30;1.53;;;21.40;78.70;;;;;;5035457;28;20453;-59
2023/08/07 10:41:13;;;;;;;4.70;2.27;;;21.70;76.20;;;;;;5035363;28;20824;-60
2023/08/07 10:43:41;;;;;;;5.10;2.80;;;21.90;68.40;;;;;;5035354;28;20438;-59
2023/08/07 10:46:11;;;;;;;4.33;1.40;;;22.00;71.50;;;;;;5035279;28;20455;-59
2023/08/07 10:48:43;;;;;;;5.50;1.63;;;22.00;70.10;;;;;;5035253;28;20430;-60
2023/08/07 10:51:13;;;;;;;5.07;1.80;;;22.20;68.10;;;;;;5034861;28;20976;-59
2023/08/07 10:53:43;;;;;;;6.53;1.90;;;22.10;68.70;;;;;;5035093;28;20446;-59
2023/08/07 10:56:12;;;;;;;5.83;2.00;;;22.40;67.60;;;;;;5035391;28;20474;-59
2023/08/07 10:58:40;;;;;;;3.90;1.63;;;23.00;64.60;;;;;;5035221;28;20450;-59
2023/08/07 11:01:20;;;;;;;2.97;1.60;;;23.60;59.50;;;;;;5034750;28;20470;-59
2023/08/07 11:03:50;;;;;;;5.17;1.73;;;24.20;58.60;;;;;;5034952;28;20454;-59
2023/08/07 11:06:17;;;;;;;3.20;1.80;;;24.90;57.30;;;;;;5034663;28;20929;-59
2023/08/07 11:08:44;;;;;;;2.90;1.60;;;25.50;54.40;;;;;;5034965;28;20442;-59
2023/08/07 11:11:10;;;;;;;8.90;1.60;;;25.70;53.60;;;;;;5034745;28;20467;-59
2023/08/07 11:13:37;;;;;;;3.67;1.30;;;25.80;53.80;;;;;;5034819;28;20450;-59
2023/08/07 11:16:04;;;;;;;2.83;1.50;;;25.30;51.00;;;;;;5035491;28;20928;-59
2023/08/07 11:18:32;;;;;;;3.77;1.47;;;25.00;51.30;;;;;;5034432;28;20447;-59
2023/08/07 11:21:01;;;;;;;5.27;1.80;;;25.20;51.40;;;;;;5034581;28;20553;-59
2023/08/07 11:23:28;;;;;;;4.70;2.03;;;25.60;48.70;;;;;;5034609;28;20880;-59
2023/08/07 11:25:55;;;;;;;4.67;1.93;;;25.60;47.90;;;;;;5034615;28;20794;-59
2023/08/07 11:28:23;;;;;;;3.27;1.90;;;25.90;49.20;;;;;;5034548;28;20446;-59
2023/08/07 11:30:51;;;;;;;3.03;1.70;;;26.40;47.00;;;;;;5034518;28;20470;-59
2023/08/07 11:33:19;;;;;;;3.97;1.87;;;26.80;48.10;;;;;;5034454;28;20476;-59
2023/08/07 11:35:46;;;;;;;9.33;2.67;;;27.10;45.50;;;;;;5034046;28;20953;-59
2023/08/07 11:38:30;;;;;;;2.90;1.80;;;27.40;43.80;;;;;;5033960;28;20857;-59
2023/08/07 11:40:58;;;;;;;2.57;1.70;;;27.90;44.30;;;;;;5034263;28;20516;-59
2023/08/07 11:43:25;;;;;;;3.83;2.20;;;27.80;42.10;;;;;;5034250;28;20496;-59
2023/08/07 11:45:52;;;;;;;3.00;2.03;;;27.30;44.10;;;;;;5034229;28;20447;-59
2023/08/07 11:48:19;;;;;;;5.50;2.40;;;26.80;43.80;;;;;;5034346;28;20438;-59
2023/08/07 11:50:46;;;;;;;4.07;1.97;;;27.10;42.90;;;;;;5034202;28;20853;-59
2023/08/07 11:53:14;;;;;;;2.93;1.63;;;27.40;42.60;;;;;;5034206;28;20449;-59
2023/08/07 11:55:48;;;;;;;5.07;1.70;;;27.60;41.50;;;;;;5034076;28;20442;-59
2023/08/07 11:58:14;;;;;;;2.50;1.87;;;27.70;39.80;;;;;;5034057;28;20605;-59
2023/08/07 12:00:45;;;;;;;1.70;1.20;;;27.70;39.40;;;;;;5033884;28;20489;-59
2023/08/07 12:03:28;;;;;;;3.90;2.10;;;28.10;40.00;;;;;;5033633;28;20478;-57
2023/08/07 12:05:57;;;;;;;3.23;1.57;;;28.00;39.10;;;;;;5033148;28;20423;-57
2023/08/07 12:08:25;;;;;;;4.30;1.70;;;27.90;38.70;;;;;;5033859;28;20442;-57
2023/08/07 12:10:54;;;;;;;3.27;1.73;;;27.60;39.10;;;;;;5033777;28;20837;-57
2023/08/07 12:13:26;;;;;;;4.20;1.87;;;28.20;41.20;;;;;;5033748;28;20450;-57
2023/08/07 12:15:55;;;;;;;3.90;1.60;;;29.20;38.00;;;;;;5033797;28;20431;-57
2023/08/07 12:18:22;;;;;;;1.63;1.53;;;29.60;37.70;;;;;;5033582;28;20897;-57
2023/08/07 12:20:50;;;;;;;7.23;2.17;;;30.20;39.20;;;;;;5033613;28;20498;-57
2023/08/07 12:23:17;;;;;;;3.23;1.80;;;30.60;35.20;;;;;;5033610;28;20453;-57
2023/08/07 12:25:45;;;;;;;2.60;1.70;;;30.80;32.80;;;;;;5033653;28;20437;-57
2023/08/07 12:28:12;;;;;;;4.07;2.10;;;30.30;31.90;;;;;;5033296;28;20832;-57
2023/08/07 12:30:40;;;;;;;4.60;1.80;;;30.00;32.10;;;;;;5033110;28;20462;-57
2023/08/07 12:33:07;;;;;;;3.30;1.67;;;30.20;34.40;;;;;;5033522;28;20441;-57
2023/08/07 12:35:34;;;;;;;2.77;1.37;;;30.40;33.80;;;;;;5033466;28;20882;-57
2023/08/07 12:38:02;;;;;;;2.73;1.50;;;30.20;32.50;;;;;;5033341;28;20482;-57
2023/08/07 12:40:30;;;;;;;3.60;1.60;;;30.30;34.30;;;;;;5033357;28;20469;-57
2023/08/07 12:42:59;;;;;;;2.53;1.63;;;31.10;33.30;;;;;;5033483;28;20450;-57
2023/08/07 12:45:26;;;;;;;4.77;1.80;;;31.70;31.70;;;;;;5033339;28;20810;-57